sensor_id;sensor_type;location;lat;lon;timestamp;P1;durP1;ratioP1;P2;durP2;ratioP2
25649;SDS011;13505;45.196;5.696;2023-08-30T04:32:41;4.90;;;2.30;;
25649;SDS011;13505;45.196;5.696;2023-08-30T04:37:31;4.18;;;2.20;;
25649;SDS011;13505;45.196;5.696;2023-08-30T04:42:22;3.60;;;2.20;;
25649;SDS011;13505;45.196;5.696;2023-08-30T04:47:12;3.08;;;2.55;;
25649;SDS011;13505;45.196;5.696;2023-08-30T04:52:03;3.07;;;2.60;;
25649;SDS011;13505;45.196;5.696;2023-08-30T04:56:54;3.10;;;2.40;;
25649;SDS011;13505;45.196;5.696;2023-08-30T05:01:44;2.85;;;2.20;;
25649;SDS011;13505;45.196;5.696;2023-08-30T05:06:35;3.20;;;2.50;;
25649;SDS011;13505;45.196;5.696;2023-08-30T05:11:25;7.07;;;2.80;;
25649;SDS011;13505;45.196;5.696;2023-08-30T05:16:15;3.15;;;2.35;;
25649;SDS011;13505;45.196;5.696;2023-08-30T05:21:06;3.40;;;2.50;;
25649;SDS011;13505;45.196;5.696;2023-08-30T05:25:56;4.47;;;2.50;;
25649;SDS011;13505;45.196;5.696;2023-08-30T05:30:47;3.28;;;2.40;;
25649;SDS011;13505;45.196;5.696;2023-08-30T05:35:37;4.37;;;2.47;;
25649;SDS011;13505;45.196;5.696;2023-08-30T05:40:27;3.88;;;2.60;;
25649;SDS011;13505;45.196;5.696;2023-08-30T05:45:18;3.13;;;2.37;;
25649;SDS011;13505;45.196;5.696;2023-08-30T05:50:08;5.33;;;2.63;;
25649;SDS011;13505;45.196;5.696;2023-08-30T05:54:59;5.00;;;2.97;;
25649;SDS011;13505;45.196;5.696;2023-08-30T05:59:49;3.42;;;2.78;;
25649;SDS011;13505;45.196;5.696;2023-08-30T06:04:40;6.03;;;3.35;;
25649;SDS011;13505;45.196;5.696;2023-08-30T06:09:30;3.78;;;3.03;;
25649;SDS011;13505;45.196;5.696;2023-08-30T06:14:21;3.60;;;2.73;;
25649;SDS011;13505;45.196;5.696;2023-08-30T06:19:11;5.97;;;3.00;;
25649;SDS011;13505;45.196;5.696;2023-08-30T06:24:02;4.43;;;2.97;;
25649;SDS011;13505;45.196;5.696;2023-08-30T06:28:53;6.18;;;2.75;;
25649;SDS011;13505;45.196;5.696;2023-08-30T06:33:43;3.22;;;2.92;;
25649;SDS011;13505;45.196;5.696;2023-08-30T06:38:34;6.68;;;3.17;;
25649;SDS011;13505;45.196;5.696;2023-08-30T06:43:24;3.00;;;2.60;;
25649;SDS011;13505;45.196;5.696;2023-08-30T06:48:14;2.63;;;2.20;;
25649;SDS011;13505;45.196;5.696;2023-08-30T06:53:05;6.70;;;3.10;;
25649;SDS011;13505;45.196;5.696;2023-08-30T06:57:55;4.20;;;2.85;;
25649;SDS011;13505;45.196;5.696;2023-08-30T07:02:45;3.63;;;2.67;;
25649;SDS011;13505;45.196;5.696;2023-08-30T07:07:36;3.50;;;2.83;;
25649;SDS011;13505;45.196;5.696;2023-08-30T07:12:26;4.77;;;2.50;;
25649;SDS011;13505;45.196;5.696;2023-08-30T07:17:16;2.90;;;2.50;;
25649;SDS011;13505;45.196;5.696;2023-08-30T07:22:07;5.25;;;2.90;;
25649;SDS011;13505;45.196;5.696;2023-08-30T07:26:57;6.13;;;2.83;;
25649;SDS011;13505;45.196;5.696;2023-08-30T07:31:47;4.00;;;2.90;;
25649;SDS011;13505;45.196;5.696;2023-08-30T07:36:41;21.52;;;4.50;;
25649;SDS011;13505;45.196;5.696;2023-08-30T07:41:33;3.78;;;2.70;;
25649;SDS011;13505;45.196;5.696;2023-08-30T07:46:24;7.55;;;3.08;;
25649;SDS011;13505;45.196;5.696;2023-08-30T07:51:15;5.07;;;2.70;;
25649;SDS011;13505;45.196;5.696;2023-08-30T07:56:06;3.37;;;2.67;;
25649;SDS011;13505;45.196;5.696;2023-08-30T08:00:56;2.90;;;2.40;;
25649;SDS011;13505;45.196;5.696;2023-08-30T08:05:46;3.27;;;2.40;;
25649;SDS011;13505;45.196;5.696;2023-08-30T08:10:36;3.67;;;2.83;;
25649;SDS011;13505;45.196;5.696;2023-08-30T08:15:27;7.53;;;2.63;;
25649;SDS011;13505;45.196;5.696;2023-08-30T08:20:20;6.18;;;2.85;;
25649;SDS011;13505;45.196;5.696;2023-08-30T08:25:11;4.60;;;2.80;;
25649;SDS011;13505;45.196;5.696;2023-08-30T08:30:01;4.03;;;2.80;;
25649;SDS011;13505;45.196;5.696;2023-08-30T08:34:53;4.45;;;2.60;;
25649;SDS011;13505;45.196;5.696;2023-08-30T08:39:44;4.28;;;2.95;;
25649;SDS011;13505;45.196;5.696;2023-08-30T08:44:36;10.82;;;3.00;;
25649;SDS011;13505;45.196;5.696;2023-08-30T08:49:28;5.03;;;3.03;;
25649;SDS011;13505;45.196;5.696;2023-08-30T08:54:20;3.65;;;2.85;;
25649;SDS011;13505;45.196;5.696;2023-08-30T08:59:12;4.60;;;2.90;;
25649;SDS011;13505;45.196;5.696;2023-08-30T09:04:05;5.65;;;2.80;;
25649;SDS011;13505;45.196;5.696;2023-08-30T09:08:57;4.50;;;2.50;;
25649;SDS011;13505;45.196;5.696;2023-08-30T09:13:47;4.37;;;2.77;;
25649;SDS011;13505;45.196;5.696;2023-08-30T09:18:37;2.47;;;2.23;;
25649;SDS011;13505;45.196;5.696;2023-08-30T09:23:28;4.07;;;2.60;;
25649;SDS011;13505;45.196;5.696;2023-08-30T09:28:18;7.37;;;2.50;;
25649;SDS011;13505;45.196;5.696;2023-08-30T09:33:08;4.00;;;2.47;;
25649;SDS011;13505;45.196;5.696;2023-08-30T09:37:59;2.97;;;2.47;;
25649;SDS011;13505;45.196;5.696;2023-08-30T09:42:49;3.20;;;2.50;;
25649;SDS011;13505;45.196;5.696;2023-08-30T09:47:40;3.92;;;2.08;;
25649;SDS011;13505;45.196;5.696;2023-08-30T09:52:31;3.72;;;2.72;;
25649;SDS011;13505;45.196;5.696;2023-08-30T09:57:23;4.47;;;2.67;;
25649;SDS011;13505;45.196;5.696;2023-08-30T10:02:14;4.45;;;3.00;;
25649;SDS011;13505;45.196;5.696;2023-08-30T10:07:05;3.20;;;2.60;;
25649;SDS011;13505;45.196;5.696;2023-08-30T10:11:57;6.20;;;3.10;;
25649;SDS011;13505;45.196;5.696;2023-08-30T10:16:48;4.40;;;3.08;;
25649;SDS011;13505;45.196;5.696;2023-08-30T10:21:43;5.22;;;2.95;;
25649;SDS011;13505;45.196;5.696;2023-08-30T10:26:34;5.30;;;2.60;;
25649;SDS011;13505;45.196;5.696;2023-08-30T10:31:27;5.85;;;3.03;;
25649;SDS011;13505;45.196;5.696;2023-08-30T10:36:24;3.83;;;2.40;;
25649;SDS011;13505;45.196;5.696;2023-08-30T10:41:19;5.43;;;2.20;;
25649;SDS011;13505;45.196;5.696;2023-08-30T10:46:10;3.53;;;2.10;;
25649;SDS011;13505;45.196;5.696;2023-08-30T10:51:01;4.43;;;2.38;;
25649;SDS011;13505;45.196;5.696;2023-08-30T10:56:10;3.00;;;2.33;;
25649;SDS011;13505;45.196;5.696;2023-08-30T11:01:00;2.78;;;2.28;;
25649;SDS011;13505;45.196;5.696;2023-08-30T11:05:51;4.78;;;2.38;;
25649;SDS011;13505;45.196;5.696;2023-08-30T11:10:42;2.35;;;2.15;;
25649;SDS011;13505;45.196;5.696;2023-08-30T11:15:32;2.58;;;2.10;;
25649;SDS011;13505;45.196;5.696;2023-08-30T11:20:23;7.05;;;2.20;;
25649;SDS011;13505;45.196;5.696;2023-08-30T11:25:14;3.67;;;2.23;;
25649;SDS011;13505;45.196;5.696;2023-08-30T11:30:06;2.42;;;2.22;;
25649;SDS011;13505;45.196;5.696;2023-08-30T11:34:58;2.92;;;2.03;;
25649;SDS011;13505;45.196;5.696;2023-08-30T11:39:51;2.60;;;2.03;;
25649;SDS011;13505;45.196;5.696;2023-08-30T11:44:42;3.05;;;2.08;;
25649;SDS011;13505;45.196;5.696;2023-08-30T11:49:34;2.70;;;2.10;;
25649;SDS011;13505;45.196;5.696;2023-08-30T11:54:25;2.40;;;2.20;;
25649;SDS011;13505;45.196;5.696;2023-08-30T11:59:22;3.60;;;2.45;;
25649;SDS011;13505;45.196;5.696;2023-08-30T12:04:12;2.92;;;2.10;;
25649;SDS011;13505;45.196;5.696;2023-08-30T12:09:03;4.03;;;2.28;;
25649;SDS011;13505;45.196;5.696;2023-08-30T12:14:01;3.72;;;2.00;;
25649;SDS011;13505;45.196;5.696;2023-08-30T12:18:52;2.10;;;1.88;;
25649;SDS011;13505;45.196;5.696;2023-08-30T12:23:42;2.13;;;1.97;;
25649;SDS011;13505;45.196;5.696;2023-08-30T12:28:33;2.63;;;2.28;;
25649;SDS011;13505;45.196;5.696;2023-08-30T12:33:25;2.25;;;1.80;;
25649;SDS011;13505;45.196;5.696;2023-08-30T12:38:16;2.42;;;2.22;;
25649;SDS011;13505;45.196;5.696;2023-08-30T12:43:07;2.00;;;1.80;;
25649;SDS011;13505;45.196;5.696;2023-08-30T12:47:57;2.80;;;2.17;;
25649;SDS011;13505;45.196;5.696;2023-08-30T12:52:48;3.38;;;2.10;;
25649;SDS011;13505;45.196;5.696;2023-08-30T12:57:39;4.27;;;2.17;;
25649;SDS011;13505;45.196;5.696;2023-08-30T13:02:29;2.67;;;2.10;;
25649;SDS011;13505;45.196;5.696;2023-08-30T13:07:19;3.23;;;2.13;;
25649;SDS011;13505;45.196;5.696;2023-08-30T13:12:10;3.33;;;2.10;;
25649;SDS011;13505;45.196;5.696;2023-08-30T13:17:00;2.73;;;2.10;;
25649;SDS011;13505;45.196;5.696;2023-08-30T13:21:50;2.20;;;1.90;;
25649;SDS011;13505;45.196;5.696;2023-08-30T13:26:41;2.10;;;1.90;;
25649;SDS011;13505;45.196;5.696;2023-08-30T13:31:32;2.42;;;2.00;;
25649;SDS011;13505;45.196;5.696;2023-08-30T13:36:22;2.50;;;2.30;;
25649;SDS011;13505;45.196;5.696;2023-08-30T13:41:12;3.93;;;2.20;;
25649;SDS011;13505;45.196;5.696;2023-08-30T13:46:03;2.50;;;2.30;;
25649;SDS011;13505;45.196;5.696;2023-08-30T13:50:54;3.35;;;1.90;;
25649;SDS011;13505;45.196;5.696;2023-08-30T13:55:47;2.30;;;2.10;;
25649;SDS011;13505;45.196;5.696;2023-08-30T14:00:38;3.13;;;2.10;;
25649;SDS011;13505;45.196;5.696;2023-08-30T14:05:28;2.10;;;1.87;;
25649;SDS011;13505;45.196;5.696;2023-08-30T14:10:19;2.63;;;2.00;;
25649;SDS011;13505;45.196;5.696;2023-08-30T14:15:09;4.07;;;2.10;;
25649;SDS011;13505;45.196;5.696;2023-08-30T14:19:59;2.97;;;2.13;;
25649;SDS011;13505;45.196;5.696;2023-08-30T14:24:51;2.30;;;2.00;;
25649;SDS011;13505;45.196;5.696;2023-08-30T14:29:41;2.30;;;2.03;;
25649;SDS011;13505;45.196;5.696;2023-08-30T14:34:32;2.37;;;2.00;;
25649;SDS011;13505;45.196;5.696;2023-08-30T14:39:22;2.43;;;2.10;;
25649;SDS011;13505;45.196;5.696;2023-08-30T14:44:12;2.77;;;2.10;;
25649;SDS011;13505;45.196;5.696;2023-08-30T14:49:02;5.80;;;2.27;;
25649;SDS011;13505;45.196;5.696;2023-08-30T14:53:53;2.47;;;2.20;;
25649;SDS011;13505;45.196;5.696;2023-08-30T14:58:43;2.80;;;2.23;;
25649;SDS011;13505;45.196;5.696;2023-08-30T15:03:39;2.45;;;2.25;;
25649;SDS011;13505;45.196;5.696;2023-08-30T15:08:29;2.43;;;2.23;;
25649;SDS011;13505;45.196;5.696;2023-08-30T15:13:19;2.50;;;2.20;;
25649;SDS011;13505;45.196;5.696;2023-08-30T15:18:11;4.07;;;2.30;;
25649;SDS011;13505;45.196;5.696;2023-08-30T15:23:01;4.00;;;2.13;;
25649;SDS011;13505;45.196;5.696;2023-08-30T15:27:51;2.30;;;2.10;;
25649;SDS011;13505;45.196;5.696;2023-08-30T15:32:42;3.47;;;2.10;;
25649;SDS011;13505;45.196;5.696;2023-08-30T15:37:32;4.03;;;2.40;;
25649;SDS011;13505;45.196;5.696;2023-08-30T15:42:22;3.47;;;2.30;;
25649;SDS011;13505;45.196;5.696;2023-08-30T15:47:13;3.97;;;2.20;;
25649;SDS011;13505;45.196;5.696;2023-08-30T15:52:03;2.73;;;2.23;;
25649;SDS011;13505;45.196;5.696;2023-08-30T15:56:53;2.87;;;2.30;;
25649;SDS011;13505;45.196;5.696;2023-08-30T16:01:44;3.90;;;2.20;;
25649;SDS011;13505;45.196;5.696;2023-08-30T16:06:34;4.40;;;2.50;;
25649;SDS011;13505;45.196;5.696;2023-08-30T16:11:24;3.77;;;2.77;;
25649;SDS011;13505;45.196;5.696;2023-08-30T16:16:15;3.70;;;2.30;;
25649;SDS011;13505;45.196;5.696;2023-08-30T16:21:05;2.88;;;2.22;;
25649;SDS011;13505;45.196;5.696;2023-08-30T16:25:56;4.28;;;2.28;;
25649;SDS011;13505;45.196;5.696;2023-08-30T16:30:48;5.82;;;2.13;;
25649;SDS011;13505;45.196;5.696;2023-08-30T16:35:38;2.53;;;2.30;;
25649;SDS011;13505;45.196;5.696;2023-08-30T16:40:28;2.53;;;2.00;;
25649;SDS011;13505;45.196;5.696;2023-08-30T16:45:19;3.78;;;1.98;;
25649;SDS011;13505;45.196;5.696;2023-08-30T16:50:09;4.05;;;2.22;;
25649;SDS011;13505;45.196;5.696;2023-08-30T16:55:02;6.57;;;2.20;;
25649;SDS011;13505;45.196;5.696;2023-08-30T16:59:52;2.95;;;2.15;;
25649;SDS011;13505;45.196;5.696;2023-08-30T17:04:44;2.60;;;2.13;;
25649;SDS011;13505;45.196;5.696;2023-08-30T17:09:36;3.80;;;2.10;;
25649;SDS011;13505;45.196;5.696;2023-08-30T17:14:27;2.28;;;2.05;;
25649;SDS011;13505;45.196;5.696;2023-08-30T17:19:17;2.37;;;2.00;;
25649;SDS011;13505;45.196;5.696;2023-08-30T17:24:08;3.40;;;2.17;;
25649;SDS011;13505;45.196;5.696;2023-08-30T17:28:58;2.83;;;2.20;;
25649;SDS011;13505;45.196;5.696;2023-08-30T17:33:48;3.93;;;2.40;;
25649;SDS011;13505;45.196;5.696;2023-08-30T17:38:39;4.65;;;2.13;;
25649;SDS011;13505;45.196;5.696;2023-08-30T17:43:29;3.93;;;2.40;;
25649;SDS011;13505;45.196;5.696;2023-08-30T17:48:20;8.23;;;3.43;;
25649;SDS011;13505;45.196;5.696;2023-08-30T17:53:10;5.00;;;3.10;;
25649;SDS011;13505;45.196;5.696;2023-08-30T17:58:03;3.20;;;2.38;;
25649;SDS011;13505;45.196;5.696;2023-08-30T18:02:53;3.45;;;2.00;;
25649;SDS011;13505;45.196;5.696;2023-08-30T18:07:43;4.70;;;2.50;;
25649;SDS011;13505;45.196;5.696;2023-08-30T18:12:34;3.22;;;2.20;;
25649;SDS011;13505;45.196;5.696;2023-08-30T18:17:27;5.05;;;2.58;;
25649;SDS011;13505;45.196;5.696;2023-08-30T18:22:22;5.90;;;2.70;;
25649;SDS011;13505;45.196;5.696;2023-08-30T18:27:12;8.32;;;3.42;;
25649;SDS011;13505;45.196;5.696;2023-08-30T18:32:05;11.50;;;3.25;;
25649;SDS011;13505;45.196;5.696;2023-08-30T18:36:55;6.70;;;2.47;;
25649;SDS011;13505;45.196;5.696;2023-08-30T18:41:48;3.10;;;2.17;;
25649;SDS011;13505;45.196;5.696;2023-08-30T18:46:38;4.82;;;2.30;;
25649;SDS011;13505;45.196;5.696;2023-08-30T18:51:29;4.43;;;2.15;;
25649;SDS011;13505;45.196;5.696;2023-08-30T18:56:19;3.77;;;2.20;;
25649;SDS011;13505;45.196;5.696;2023-08-30T19:01:10;4.50;;;1.87;;
25649;SDS011;13505;45.196;5.696;2023-08-30T19:06:03;3.17;;;2.10;;
25649;SDS011;13505;45.196;5.696;2023-08-30T19:10:57;3.10;;;2.10;;
25649;SDS011;13505;45.196;5.696;2023-08-30T19:15:47;3.37;;;2.00;;
25649;SDS011;13505;45.196;5.696;2023-08-30T19:20:37;2.83;;;1.93;;
25649;SDS011;13505;45.196;5.696;2023-08-30T19:25:31;3.40;;;2.30;;
25649;SDS011;13505;45.196;5.696;2023-08-30T19:30:21;2.40;;;1.75;;
25649;SDS011;13505;45.196;5.696;2023-08-30T19:35:14;2.47;;;1.90;;
25649;SDS011;13505;45.196;5.696;2023-08-30T19:40:07;2.70;;;1.83;;
25649;SDS011;13505;45.196;5.696;2023-08-30T19:44:58;2.20;;;2.00;;
25649;SDS011;13505;45.196;5.696;2023-08-30T19:49:51;2.95;;;2.20;;
25649;SDS011;13505;45.196;5.696;2023-08-30T19:54:41;2.70;;;2.10;;
25649;SDS011;13505;45.196;5.696;2023-08-30T19:59:33;2.75;;;2.20;;
25649;SDS011;13505;45.196;5.696;2023-08-30T20:04:24;4.70;;;2.30;;
25649;SDS011;13505;45.196;5.696;2023-08-30T20:09:15;3.95;;;2.20;;
25649;SDS011;13505;45.196;5.696;2023-08-30T20:14:06;5.30;;;2.30;;
25649;SDS011;13505;45.196;5.696;2023-08-30T20:18:56;4.57;;;2.47;;
25649;SDS011;13505;45.196;5.696;2023-08-30T20:23:47;3.20;;;2.10;;
25649;SDS011;13505;45.196;5.696;2023-08-30T20:28:37;5.97;;;2.30;;
25649;SDS011;13505;45.196;5.696;2023-08-30T20:33:28;4.63;;;2.80;;
25649;SDS011;13505;45.196;5.696;2023-08-30T20:38:18;4.20;;;2.40;;
25649;SDS011;13505;45.196;5.696;2023-08-30T20:43:09;3.83;;;2.60;;
25649;SDS011;13505;45.196;5.696;2023-08-30T20:47:59;3.60;;;2.40;;
25649;SDS011;13505;45.196;5.696;2023-08-30T20:52:49;3.43;;;2.20;;
25649;SDS011;13505;45.196;5.696;2023-08-30T20:57:40;5.47;;;2.37;;
25649;SDS011;13505;45.196;5.696;2023-08-30T21:02:30;2.40;;;1.98;;
25649;SDS011;13505;45.196;5.696;2023-08-30T21:07:25;3.13;;;2.10;;
25649;SDS011;13505;45.196;5.696;2023-08-30T21:12:15;2.87;;;2.03;;
25649;SDS011;13505;45.196;5.696;2023-08-30T21:17:05;2.83;;;2.13;;
25649;SDS011;13505;45.196;5.696;2023-08-30T21:21:56;2.67;;;2.10;;
25649;SDS011;13505;45.196;5.696;2023-08-30T21:26:47;4.45;;;2.08;;
25649;SDS011;13505;45.196;5.696;2023-08-30T21:31:37;3.40;;;2.27;;
25649;SDS011;13505;45.196;5.696;2023-08-30T21:36:27;2.67;;;2.13;;
25649;SDS011;13505;45.196;5.696;2023-08-30T21:41:18;2.97;;;2.40;;
25649;SDS011;13505;45.196;5.696;2023-08-30T21:46:09;3.03;;;2.35;;
25649;SDS011;13505;45.196;5.696;2023-08-30T21:51:00;5.38;;;2.80;;
25649;SDS011;13505;45.196;5.696;2023-08-30T21:55:50;4.30;;;2.40;;
